createdAt,value
2023-03-31T00:00:16.201Z,-6.26
2023-03-31T00:03:03.296Z,-6.22
2023-03-31T00:05:50.296Z,-6.26
2023-03-31T00:08:37.097Z,-6.30
2023-03-31T00:11:25.856Z,-6.33
2023-03-31T00:14:12.862Z,-6.39
2023-03-31T00:17:00.102Z,-6.41
2023-03-31T00:19:47.019Z,-6.43
2023-03-31T00:22:33.974Z,-6.48
2023-03-31T00:25:20.926Z,-6.52
2023-03-31T00:28:07.844Z,-6.54
2023-03-31T00:30:57.918Z,-6.61
2023-03-31T00:33:44.932Z,-6.64
2023-03-31T00:36:32.037Z,-6.65
2023-03-31T00:39:27.969Z,-6.68
2023-03-31T00:42:14.984Z,-6.72
2023-03-31T00:45:34.274Z,-6.76
2023-03-31T00:48:27.916Z,-7.22
2023-03-31T00:51:17.771Z,-6.83
2023-03-31T00:54:08.534Z,-6.89
2023-03-31T00:57:00.465Z,-6.91
2023-03-31T00:59:50.937Z,-6.94
2023-03-31T01:02:39.103Z,-6.98
2023-03-31T01:05:26.401Z,-7.01
2023-03-31T01:08:14.616Z,-7.16
2023-03-31T01:11:06.480Z,-7.42
2023-03-31T01:13:57.008Z,-7.13
2023-03-31T01:16:44.200Z,-7.18
2023-03-31T01:19:47.912Z,-7.27
2023-03-31T01:22:51.201Z,-7.23
2023-03-31T01:25:44.131Z,-7.26
2023-03-31T01:28:46.266Z,-7.29
2023-03-31T01:31:52.028Z,-7.32
2023-03-31T01:35:03.844Z,-7.35
2023-03-31T01:38:12.405Z,-7.39
2023-03-31T01:41:14.607Z,-7.42
2023-03-31T01:44:20.035Z,-7.46
2023-03-31T01:47:15.206Z,-7.59
2023-03-31T01:50:08.253Z,-7.52
2023-03-31T01:52:58.138Z,-7.54
2023-03-31T01:56:08.494Z,-7.55
2023-03-31T01:59:20.251Z,-8.25
2023-03-31T02:02:33.608Z,-7.60
2023-03-31T02:05:26.700Z,-7.64
2023-03-31T02:08:28.107Z,-7.63
2023-03-31T02:11:16.492Z,-7.65
2023-03-31T02:14:07.352Z,-7.99
2023-03-31T02:16:58.511Z,-7.67
2023-03-31T02:19:51.321Z,-7.72
2023-03-31T02:22:40.964Z,-7.74
2023-03-31T02:25:31.945Z,-7.70
2023-03-31T02:28:29.492Z,-7.70
2023-03-31T02:31:39.537Z,-7.79
2023-03-31T02:34:27.677Z,-7.96
2023-03-31T02:37:15.298Z,-7.73
2023-03-31T02:40:08.889Z,-7.86
2023-03-31T02:43:00.967Z,-7.95
2023-03-31T02:46:11.282Z,-7.78
2023-03-31T02:49:03.858Z,-7.77
2023-03-31T02:52:02.713Z,-7.73
2023-03-31T02:54:58.715Z,-7.72
2023-03-31T02:58:15.143Z,-7.70
2023-03-31T03:01:27.305Z,-7.68
2023-03-31T03:04:48.584Z,-7.65
2023-03-31T03:08:03.290Z,-7.62
2023-03-31T03:11:24.468Z,-7.59
2023-03-31T03:14:33.718Z,-7.54
2023-03-31T03:17:37.077Z,-7.51
2023-03-31T03:20:28.936Z,-7.47
2023-03-31T03:23:15.888Z,-7.44
2023-03-31T03:26:02.743Z,-7.41
2023-03-31T03:28:49.914Z,-7.43
2023-03-31T03:31:37.426Z,-7.33
2023-03-31T03:34:24.459Z,-7.36
2023-03-31T03:37:11.607Z,-7.54
2023-03-31T03:39:58.562Z,-7.39
2023-03-31T03:42:45.756Z,-7.20
2023-03-31T03:45:32.759Z,-7.76
2023-03-31T03:48:19.765Z,-7.27
2023-03-31T03:51:06.944Z,-7.28
2023-03-31T03:53:53.985Z,-7.05
2023-03-31T03:56:41.138Z,-7.01
2023-03-31T03:59:28.063Z,-6.98
2023-03-31T04:02:15.167Z,-6.96
2023-03-31T04:05:02.070Z,-6.92
2023-03-31T04:07:48.924Z,-6.95
2023-03-31T04:10:36.176Z,-6.87
2023-03-31T04:13:23.157Z,-6.83
2023-03-31T04:16:10.195Z,-6.80
2023-03-31T04:18:57.827Z,-6.77
2023-03-31T04:21:45.355Z,-7.37
2023-03-31T04:24:33.533Z,-6.80
2023-03-31T04:27:21.278Z,-7.00
2023-03-31T04:30:08.119Z,-6.83
2023-03-31T04:32:55.058Z,-6.67
2023-03-31T04:35:43.940Z,-6.68
2023-03-31T04:38:31.108Z,-6.75
2023-03-31T04:41:17.971Z,-6.62
2023-03-31T04:44:04.990Z,-6.60
2023-03-31T04:46:53.065Z,-6.58
2023-03-31T04:49:40.473Z,-6.56
2023-03-31T04:52:27.345Z,-6.53
2023-03-31T04:55:14.329Z,-6.51
2023-03-31T04:58:01.326Z,-6.48
2023-03-31T05:00:48.378Z,-6.45
2023-03-31T05:03:35.501Z,-6.51
2023-03-31T05:06:22.585Z,-6.40
2023-03-31T05:09:09.433Z,-6.36
2023-03-31T05:11:56.379Z,-6.34
2023-03-31T05:14:43.549Z,-6.45
2023-03-31T05:17:30.534Z,-6.26
2023-03-31T05:20:17.414Z,-6.28
2023-03-31T05:23:04.442Z,-6.25
2023-03-31T05:25:51.240Z,-6.15
2023-03-31T05:28:38.145Z,-6.15
2023-03-31T05:31:26.041Z,-6.07
2023-03-31T05:34:13.194Z,-6.07
2023-03-31T05:37:00.013Z,-5.99
2023-03-31T05:39:47.066Z,-5.97
2023-03-31T05:42:33.870Z,-5.98
2023-03-31T05:45:20.827Z,-5.85
2023-03-31T05:48:07.700Z,-5.79
2023-03-31T05:50:54.906Z,-6.13
2023-03-31T05:53:41.894Z,-5.68
2023-03-31T05:56:28.815Z,-5.62
2023-03-31T05:59:15.647Z,-5.57
2023-03-31T06:02:02.685Z,-5.49
2023-03-31T06:04:49.709Z,-5.43
2023-03-31T06:07:36.773Z,-5.39
2023-03-31T06:10:23.883Z,-5.49
2023-03-31T06:13:10.806Z,-5.32
2023-03-31T06:15:57.821Z,-5.53
2023-03-31T06:18:45.317Z,-5.30
2023-03-31T06:21:37.377Z,-5.04
2023-03-31T06:24:24.436Z,-5.11
2023-03-31T06:27:11.254Z,-4.99
2023-03-31T06:29:58.468Z,-4.85
2023-03-31T06:32:45.378Z,-4.81
2023-03-31T06:35:32.446Z,-4.72
2023-03-31T06:38:19.344Z,-4.62
2023-03-31T06:41:06.346Z,-5.16
2023-03-31T06:43:53.609Z,-4.49
2023-03-31T06:46:40.509Z,-4.57
2023-03-31T06:49:27.750Z,-5.50
2023-03-31T06:52:14.739Z,-4.28
2023-03-31T06:55:01.780Z,-4.33
2023-03-31T06:57:49.660Z,-4.18
2023-03-31T07:00:37.710Z,-4.09
2023-03-31T07:03:25.507Z,-3.98
2023-03-31T07:06:13.565Z,-3.92
2023-03-31T07:09:00.350Z,-3.88
2023-03-31T07:11:47.301Z,-3.87
2023-03-31T07:14:34.240Z,-3.75
2023-03-31T07:17:21.236Z,-3.83
2023-03-31T07:20:08.181Z,-3.86
2023-03-31T07:22:55.026Z,-3.57
2023-03-31T07:25:41.978Z,-4.11
2023-03-31T07:28:28.961Z,-3.46
2023-03-31T07:31:15.907Z,-3.39
2023-03-31T07:34:02.748Z,-3.31
2023-03-31T07:36:50.257Z,-3.23
2023-03-31T07:39:37.354Z,-3.42
2023-03-31T07:42:24.189Z,-3.09
2023-03-31T07:45:11.041Z,-3.01
2023-03-31T07:47:57.937Z,-3.64
2023-03-31T07:50:45.001Z,-2.88
2023-03-31T07:53:39.779Z,-2.79
2023-03-31T07:56:26.855Z,-3.04
2023-03-31T07:59:14.211Z,-2.66
2023-03-31T08:02:01.296Z,-2.68
2023-03-31T08:04:48.614Z,-2.51
2023-03-31T08:07:36.482Z,-2.44
2023-03-31T08:10:27.831Z,-2.43
2023-03-31T08:13:14.806Z,-2.45
2023-03-31T08:16:01.821Z,-2.45
2023-03-31T08:18:48.806Z,-2.17
2023-03-31T08:21:35.974Z,-2.08
2023-03-31T08:24:22.885Z,-2.01
2023-03-31T08:27:12.563Z,-2.03
2023-03-31T08:29:59.562Z,-2.36
2023-03-31T08:32:46.486Z,-1.84
2023-03-31T08:35:33.385Z,-1.68
2023-03-31T08:38:20.301Z,-1.59
2023-03-31T08:41:07.201Z,-1.51
2023-03-31T08:44:01.755Z,-1.43
2023-03-31T08:46:51.761Z,-1.42
2023-03-31T08:49:40.952Z,-1.25
2023-03-31T08:52:34.648Z,-1.17
2023-03-31T08:55:28.593Z,-1.11
2023-03-31T08:58:34.019Z,-1.00
2023-03-31T09:01:28.874Z,-0.90
2023-03-31T09:04:49.913Z,-0.90
2023-03-31T09:08:14.216Z,-0.72
2023-03-31T09:11:15.912Z,-0.95
2023-03-31T09:14:09.564Z,-0.52
2023-03-31T09:17:08.746Z,-0.68
2023-03-31T09:20:17.742Z,-0.26
2023-03-31T09:23:16.634Z,-0.14
2023-03-31T09:26:05.077Z,-0.14
2023-03-31T09:28:59.251Z,0.08
2023-03-31T09:31:47.349Z,0.22
2023-03-31T09:34:39.306Z,0.34
2023-03-31T09:37:26.231Z,0.45
2023-03-31T09:40:13.228Z,0.58
2023-03-31T09:43:00.208Z,0.43
2023-03-31T09:46:01.736Z,0.53
2023-03-31T09:48:56.096Z,0.95
2023-03-31T09:51:48.926Z,0.76
2023-03-31T09:54:51.123Z,0.95
2023-03-31T09:57:50.889Z,0.85
2023-03-31T10:00:41.011Z,1.28
2023-03-31T10:03:28.000Z,1.51
2023-03-31T10:06:16.821Z,1.60
2023-03-31T10:09:19.617Z,1.70
2023-03-31T10:12:15.527Z,1.83
2023-03-31T10:15:07.414Z,1.94
2023-03-31T10:18:00.953Z,1.75
2023-03-31T10:20:57.217Z,2.15
2023-03-31T10:23:50.061Z,2.23
2023-03-31T10:26:40.425Z,2.04
2023-03-31T10:29:33.744Z,2.51
2023-03-31T10:32:47.851Z,2.47
2023-03-31T10:35:46.453Z,2.82
2023-03-31T10:38:44.008Z,2.66
2023-03-31T10:41:32.296Z,2.80
2023-03-31T10:44:24.061Z,3.19
2023-03-31T10:47:12.765Z,3.30
2023-03-31T10:50:02.148Z,3.38
2023-03-31T10:52:49.065Z,3.64
2023-03-31T10:55:46.374Z,3.77
2023-03-31T10:58:39.054Z,3.93
2023-03-31T11:01:41.301Z,4.08
2023-03-31T11:04:49.370Z,4.07
2023-03-31T11:08:14.859Z,4.42
2023-03-31T11:11:19.933Z,4.56
2023-03-31T11:14:30.807Z,4.75
2023-03-31T11:17:20.871Z,4.91
2023-03-31T11:20:31.356Z,5.03
2023-03-31T11:24:09.385Z,5.17
2023-03-31T11:26:59.132Z,5.31
2023-03-31T11:30:09.908Z,5.42
2023-03-31T11:33:13.729Z,5.55
2023-03-31T11:36:22.281Z,5.69
2023-03-31T11:39:32.467Z,5.82
2023-03-31T11:42:23.779Z,5.93
2023-03-31T11:45:17.574Z,6.04
2023-03-31T11:48:07.757Z,6.17
2023-03-31T11:50:58.502Z,5.98
2023-03-31T11:53:52.284Z,6.20
2023-03-31T11:56:41.125Z,6.07
2023-03-31T11:59:34.442Z,6.40
2023-03-31T12:02:27.664Z,6.67
2023-03-31T12:05:16.661Z,6.77
2023-03-31T12:08:48.136Z,6.89
2023-03-31T12:11:46.809Z,7.00
2023-03-31T12:14:39.548Z,7.13
2023-03-31T12:17:35.572Z,7.13
2023-03-31T12:20:32.248Z,7.38
2023-03-31T12:23:22.512Z,7.48
2023-03-31T12:26:18.809Z,7.54
2023-03-31T12:29:08.545Z,7.67
2023-03-31T12:31:58.091Z,7.76
2023-03-31T12:34:48.364Z,7.86
2023-03-31T12:38:13.103Z,7.96
2023-03-31T12:41:32.876Z,8.07
2023-03-31T12:44:47.043Z,8.12
2023-03-31T12:48:06.870Z,8.31
2023-03-31T12:51:02.959Z,8.41
2023-03-31T12:53:55.856Z,8.46
2023-03-31T12:56:43.152Z,8.39
2023-03-31T12:59:49.362Z,8.60
2023-03-31T13:02:36.313Z,8.68
2023-03-31T13:06:15.360Z,8.73
2023-03-31T13:09:22.220Z,8.50
2023-03-31T13:12:09.368Z,8.76
2023-03-31T13:15:00.864Z,8.83
2023-03-31T13:17:56.662Z,8.77
2023-03-31T13:23:53.966Z,8.91
2023-03-31T13:26:54.079Z,8.98
2023-03-31T13:29:59.754Z,9.01
2023-03-31T13:32:47.647Z,9.05
2023-03-31T13:35:42.049Z,9.05
2023-03-31T13:38:50.957Z,9.00
2023-03-31T13:41:56.646Z,9.01
2023-03-31T13:44:46.495Z,9.09
2023-03-31T13:47:36.327Z,9.11
2023-03-31T13:50:57.146Z,9.10
2023-03-31T13:54:29.611Z,8.79
2023-03-31T13:57:38.173Z,9.07
2023-03-31T14:00:27.331Z,9.08
2023-03-31T14:03:29.690Z,9.06
2023-03-31T14:06:02.047Z,9.09
2023-03-31T14:09:07.743Z,9.10
2023-03-31T14:11:34.817Z,9.12
2023-03-31T14:14:11.948Z,8.95
2023-03-31T14:16:46.579Z,8.79
2023-03-31T14:19:41.152Z,9.09
2023-03-31T14:22:44.450Z,9.08
2023-03-31T14:25:43.827Z,8.97
2023-03-31T14:28:32.188Z,9.05
2023-03-31T14:31:05.030Z,9.02
2023-03-31T14:33:56.756Z,8.99
2023-03-31T14:36:41.743Z,8.97
2023-03-31T14:39:11.944Z,8.94
2023-03-31T14:41:39.159Z,8.91
2023-03-31T14:44:16.355Z,8.89
2023-03-31T14:46:43.350Z,8.68
2023-03-31T14:49:28.145Z,8.83
2023-03-31T14:52:00.686Z,8.79
2023-03-31T14:54:27.746Z,8.65
2023-03-31T14:56:58.412Z,8.68
2023-03-31T14:59:32.882Z,8.61
2023-03-31T15:02:03.608Z,8.39
2023-03-31T15:04:44.781Z,8.54
2023-03-31T15:07:13.242Z,8.24
2023-03-31T15:09:41.340Z,8.42
2023-03-31T15:12:13.714Z,8.43
2023-03-31T15:14:49.770Z,8.37
2023-03-31T15:17:33.164Z,8.35
2023-03-31T15:20:04.651Z,8.25
2023-03-31T15:22:31.687Z,8.30
2023-03-31T15:24:58.702Z,8.28
2023-03-31T15:27:44.166Z,8.17
2023-03-31T15:30:29.722Z,8.07
2023-03-31T15:33:11.200Z,7.98
2023-03-31T15:35:44.817Z,8.18
2023-03-31T15:38:16.410Z,8.17
2023-03-31T15:40:44.330Z,8.13
2023-03-31T15:43:25.001Z,8.11
2023-03-31T15:45:57.286Z,8.08
2023-03-31T15:48:48.971Z,8.06
2023-03-31T15:51:31.163Z,8.03
2023-03-31T15:53:58.267Z,7.93
2023-03-31T15:56:56.021Z,7.98
2023-03-31T15:59:27.366Z,7.96
2023-03-31T16:02:03.661Z,7.70
2023-03-31T16:04:35.083Z,7.91
2023-03-31T16:07:05.614Z,7.89
2023-03-31T16:09:35.751Z,7.86
2023-03-31T16:12:10.704Z,7.86
2023-03-31T16:14:46.189Z,7.84
2023-03-31T16:17:22.273Z,7.81
2023-03-31T16:19:56.349Z,7.77
2023-03-31T16:22:30.822Z,7.73
2023-03-31T16:24:57.794Z,7.70
2023-03-31T16:27:24.874Z,7.71
2023-03-31T16:30:15.134Z,7.64
2023-03-31T16:33:02.265Z,7.63
2023-03-31T16:35:38.355Z,7.58
2023-03-31T16:38:07.042Z,7.55
2023-03-31T16:40:42.764Z,7.32
2023-03-31T16:43:14.414Z,7.49
2023-03-31T16:45:45.079Z,7.45
2023-03-31T16:48:16.262Z,7.42
2023-03-31T16:50:46.563Z,7.38
2023-03-31T16:53:19.819Z,7.33
2023-03-31T16:55:47.335Z,7.28
2023-03-31T16:58:15.162Z,7.12
2023-03-31T17:00:42.844Z,6.64
2023-03-31T17:03:10.747Z,7.14
2023-03-31T17:05:43.470Z,7.10
2023-03-31T17:08:11.773Z,7.06
2023-03-31T17:10:39.826Z,7.00
2023-03-31T17:13:07.968Z,6.96
2023-03-31T17:15:36.603Z,6.93
2023-03-31T17:18:04.697Z,6.57
2023-03-31T17:20:32.828Z,6.82
2023-03-31T17:23:00.183Z,6.77
2023-03-31T17:25:27.193Z,6.54
2023-03-31T17:27:55.889Z,6.61
2023-03-31T17:30:23.812Z,6.58
2023-03-31T17:32:52.177Z,6.52
2023-03-31T17:35:21.684Z,6.41
2023-03-31T17:37:53.813Z,6.40
2023-03-31T17:40:26.709Z,6.35
2023-03-31T17:42:54.652Z,6.30
2023-03-31T17:45:21.708Z,6.25
2023-03-31T17:47:48.630Z,6.19
2023-03-31T17:50:15.773Z,6.13
2023-03-31T17:52:42.960Z,6.07
2023-03-31T17:55:10.096Z,6.00
2023-03-31T17:57:37.336Z,5.94
2023-03-31T18:00:06.127Z,5.70
2023-03-31T18:02:40.923Z,5.80
2023-03-31T18:05:09.013Z,5.74
2023-03-31T18:07:36.917Z,5.67
2023-03-31T18:10:08.142Z,5.60
2023-03-31T18:12:36.620Z,5.47
2023-03-31T18:15:05.816Z,5.17
2023-03-31T18:17:33.333Z,5.41
2023-03-31T18:20:00.220Z,5.33
2023-03-31T18:22:27.578Z,5.26
2023-03-31T18:24:54.664Z,5.15
2023-03-31T18:27:22.557Z,5.12
2023-03-31T18:29:51.038Z,5.01
2023-03-31T18:32:18.095Z,4.98
2023-03-31T18:34:45.146Z,4.91
2023-03-31T18:37:12.635Z,4.84
2023-03-31T18:39:39.649Z,4.38
2023-03-31T18:42:06.883Z,4.56
2023-03-31T18:44:35.733Z,4.19
2023-03-31T18:47:02.736Z,4.38
2023-03-31T18:49:29.742Z,4.31
2023-03-31T18:51:58.661Z,4.36
2023-03-31T18:54:26.136Z,4.29
2023-03-31T18:56:53.106Z,3.83
2023-03-31T18:59:20.134Z,4.05
2023-03-31T19:01:47.261Z,4.04
2023-03-31T19:04:14.242Z,3.87
2023-03-31T19:06:41.182Z,3.91
2023-03-31T19:09:08.135Z,3.58
2023-03-31T19:11:35.559Z,3.75
2023-03-31T19:14:02.708Z,3.68
2023-03-31T19:16:29.712Z,3.62
2023-03-31T19:18:56.907Z,3.55
2023-03-31T19:21:24.565Z,3.47
2023-03-31T19:23:51.710Z,3.40
2023-03-31T19:26:19.724Z,3.34
2023-03-31T19:28:48.194Z,3.26
2023-03-31T19:31:15.628Z,3.19
2023-03-31T19:33:42.850Z,3.11
2023-03-31T19:36:10.007Z,2.97
2023-03-31T19:38:37.655Z,2.97
2023-03-31T19:41:08.361Z,2.91
2023-03-31T19:43:35.449Z,2.83
2023-03-31T19:46:02.375Z,2.77
2023-03-31T19:48:32.177Z,2.71
2023-03-31T19:51:01.611Z,2.64
2023-03-31T19:53:28.634Z,2.58
2023-03-31T19:55:57.898Z,2.35
2023-03-31T19:58:26.220Z,2.44
2023-03-31T20:00:55.376Z,2.39
2023-03-31T20:03:24.296Z,2.18
2023-03-31T20:05:52.019Z,2.21
2023-03-31T20:08:18.978Z,2.14
2023-03-31T20:10:45.927Z,2.12
2023-03-31T20:13:12.901Z,2.11
2023-03-31T20:15:41.274Z,2.13
2023-03-31T20:18:08.543Z,2.06
2023-03-31T20:20:35.539Z,2.05
2023-03-31T20:23:03.858Z,2.04
2023-03-31T20:25:31.016Z,2.01
2023-03-31T20:27:58.086Z,1.99
2023-03-31T20:30:24.940Z,1.93
2023-03-31T20:32:51.939Z,1.93
2023-03-31T20:35:18.968Z,1.92
2023-03-31T20:37:45.984Z,1.90
2023-03-31T20:40:12.950Z,1.86
2023-03-31T20:42:39.854Z,1.87
2023-03-31T20:45:07.546Z,1.84
2023-03-31T20:47:35.337Z,1.83
2023-03-31T20:50:02.947Z,1.79
2023-03-31T20:52:29.971Z,1.80
2023-03-31T20:54:57.088Z,1.77
2023-03-31T20:57:26.354Z,1.78
2023-03-31T20:59:53.597Z,1.54
2023-03-31T21:02:20.922Z,1.73
2023-03-31T21:04:49.704Z,1.67
2023-03-31T21:07:18.158Z,1.73
2023-03-31T21:09:45.465Z,1.71
2023-03-31T21:12:12.769Z,1.70
2023-03-31T21:14:39.745Z,1.67
2023-03-31T21:17:07.085Z,1.69
2023-03-31T21:19:34.282Z,1.54
2023-03-31T21:22:01.124Z,1.66
2023-03-31T21:24:28.271Z,1.65
2023-03-31T21:26:55.289Z,1.20
2023-03-31T21:29:22.239Z,1.62
2023-03-31T21:31:49.167Z,1.57
2023-03-31T21:34:16.112Z,1.57
2023-03-31T21:36:43.302Z,1.57
2023-03-31T21:39:10.238Z,1.56
2023-03-31T21:41:39.766Z,1.26
2023-03-31T21:44:08.947Z,1.49
2023-03-31T21:46:36.297Z,1.50
2023-03-31T21:49:03.569Z,1.48
2023-03-31T21:51:30.793Z,1.45
2023-03-31T21:53:57.746Z,1.46
2023-03-31T21:56:27.754Z,1.44
2023-03-31T21:58:55.773Z,1.42
2023-03-31T22:01:23.594Z,1.33
2023-03-31T22:03:50.889Z,1.35
2023-03-31T22:06:18.309Z,1.32
2023-03-31T22:08:45.680Z,1.33
2023-03-31T22:11:13.501Z,1.03
2023-03-31T22:13:41.387Z,1.29
2023-03-31T22:16:17.764Z,1.27
2023-03-31T22:18:46.002Z,1.04
2023-03-31T22:21:25.130Z,1.08
2023-03-31T22:24:02.464Z,1.14
2023-03-31T22:26:31.189Z,1.20
2023-03-31T22:28:58.764Z,1.19
2023-03-31T22:31:27.045Z,1.17
2023-03-31T22:33:54.348Z,1.04
2023-03-31T22:36:21.415Z,1.13
2023-03-31T22:38:48.770Z,0.98
2023-03-31T22:41:15.791Z,1.11
2023-03-31T22:43:45.336Z,1.10
2023-03-31T22:46:13.989Z,1.09
2023-03-31T22:48:41.371Z,0.98
2023-03-31T22:51:08.913Z,1.06
2023-03-31T22:53:36.477Z,0.97
2023-03-31T22:56:12.078Z,1.03
2023-03-31T22:58:39.104Z,0.98
2023-03-31T23:01:07.234Z,1.00
2023-03-31T23:03:34.525Z,1.00
2023-03-31T23:06:05.304Z,0.98
2023-03-31T23:08:33.743Z,0.81
2023-03-31T23:11:01.853Z,0.94
2023-03-31T23:13:30.071Z,0.90
2023-03-31T23:15:57.128Z,0.83
2023-03-31T23:18:24.127Z,0.90
2023-03-31T23:20:51.470Z,0.88
2023-03-31T23:23:18.421Z,0.76
2023-03-31T23:25:45.566Z,0.84
2023-03-31T23:28:12.791Z,0.82
2023-03-31T23:30:40.032Z,0.58
2023-03-31T23:33:08.497Z,0.82
2023-03-31T23:35:35.919Z,0.79
2023-03-31T23:38:03.172Z,0.74
2023-03-31T23:40:30.079Z,0.75
2023-03-31T23:42:56.937Z,0.74
2023-03-31T23:45:23.971Z,0.64
2023-03-31T23:47:50.993Z,0.57
2023-03-31T23:50:18.318Z,0.68
2023-03-31T23:52:45.152Z,0.66
2023-03-31T23:55:13.140Z,0.65
2023-03-31T23:57:41.497Z,0.64
